Time;durP1;ratioP1;P1;durP2;ratioP2;P2;SDS_P1;SDS_P2;PMS_P1;PMS_P2;Temp;Humidity;BMP_temperature;BMP_pressure;BME280_temperature;BME280_humidity;BME280_pressure;Samples;Min_cycle;Max_cycle;Signal;HPM_P1;HPM_P2
2022/04/29 00:01:31;;;;;;;14.82;11.60;;;3.90;93.90;;;;;;5031875;28;20034;-79
2022/04/29 00:03:56;;;;;;;13.38;9.63;;;3.90;93.90;;;;;;5033277;28;20087;-79
2022/04/29 00:06:22;;;;;;;11.48;9.68;;;3.90;94.00;;;;;;5033258;28;20038;-80
2022/04/29 00:08:48;;;;;;;12.15;9.68;;;3.90;94.00;;;;;;5032119;28;20034;-79
2022/04/29 00:11:14;;;;;;;12.48;10.02;;;3.80;94.10;;;;;;5033106;28;20033;-78
2022/04/29 00:13:40;;;;;;;15.52;11.63;;;3.80;94.10;;;;;;5033059;28;20486;-78
2022/04/29 00:16:06;;;;;;;14.38;12.18;;;3.80;94.30;;;;;;5033186;28;20467;-78
2022/04/29 00:18:32;;;;;;;16.05;11.32;;;3.80;94.30;;;;;;5033187;28;20027;-78
2022/04/29 00:20:58;;;;;;;16.48;11.80;;;3.80;94.30;;;;;;5031772;28;20026;-80
2022/04/29 00:23:24;;;;;;;20.67;12.00;;;3.70;94.30;;;;;;5033078;28;20022;-78
2022/04/29 00:25:50;;;;;;;14.63;11.98;;;3.70;94.40;;;;;;5031964;28;20057;-77
2022/04/29 00:28:16;;;;;;;14.60;11.90;;;3.70;94.50;;;;;;5033040;28;20096;-79
2022/04/29 00:30:42;;;;;;;17.85;12.98;;;3.70;94.60;;;;;;5032835;28;20075;-81
2022/04/29 00:33:08;;;;;;;17.60;11.95;;;3.70;94.70;;;;;;5031603;28;20017;-77
2022/04/29 00:35:34;;;;;;;15.52;13.02;;;3.70;94.80;;;;;;5032541;28;20479;-79
2022/04/29 00:38:00;;;;;;;17.50;12.95;;;3.70;94.80;;;;;;5032713;28;20372;-79
2022/04/29 00:40:29;;;;;;;19.08;12.82;;;3.70;94.90;;;;;;5032899;28;20124;-79
2022/04/29 00:42:55;;;;;;;16.77;13.77;;;3.70;95.00;;;;;;5031087;28;20521;-79
2022/04/29 00:45:22;;;;;;;16.83;13.85;;;3.70;95.00;;;;;;5032547;28;20437;-78
2022/04/29 00:47:50;;;;;;;19.02;12.45;;;3.70;95.00;;;;;;5029812;28;20056;-78
2022/04/29 00:50:19;;;;;;;15.50;12.43;;;3.70;95.10;;;;;;5032361;28;20025;-82
2022/04/29 00:52:53;;;;;;;20.27;13.75;;;3.60;95.00;;;;;;5032573;28;20052;-81
2022/04/29 00:55:21;;;;;;;20.83;13.75;;;3.60;95.10;;;;;;5032451;28;20034;-80
2022/04/29 00:57:51;;;;;;;18.17;13.82;;;3.60;95.20;;;;;;5033593;28;20035;-80
2022/04/29 01:00:18;;;;;;;19.55;13.32;;;3.60;95.30;;;;;;5035764;28;20121;-80
2022/04/29 01:02:51;;;;;;;19.50;14.57;;;3.50;95.30;;;;;;5032814;28;20064;-79
2022/04/29 01:05:23;;;;;;;23.27;15.82;;;3.50;95.60;;;;;;5032282;28;20030;-82
2022/04/29 01:07:50;;;;;;;23.27;15.68;;;3.50;95.40;;;;;;5031377;28;20018;-81
2022/04/29 01:10:20;;;;;;;23.52;14.80;;;3.50;95.40;;;;;;5031374;28;20054;-79
2022/04/29 01:12:49;;;;;;;23.67;16.08;;;3.50;95.50;;;;;;5032259;28;20090;-79
2022/04/29 01:15:17;;;;;;;19.00;15.30;;;3.50;95.50;;;;;;5032358;28;20049;-78
2022/04/29 01:17:45;;;;;;;20.90;16.80;;;3.40;95.50;;;;;;5031990;28;20517;-79
2022/04/29 01:20:13;;;;;;;21.40;17.02;;;3.40;95.60;;;;;;5032189;28;20044;-80
2022/04/29 01:22:39;;;;;;;24.35;16.63;;;3.40;95.60;;;;;;5030914;28;20026;-81
2022/04/29 01:25:05;;;;;;;20.45;17.63;;;3.40;95.70;;;;;;5030820;28;20049;-79
2022/04/29 01:27:31;;;;;;;20.85;15.80;;;3.40;95.80;;;;;;5031930;28;20515;-78
2022/04/29 01:30:09;;;;;;;24.17;17.33;;;3.30;95.80;;;;;;5031763;28;20022;-79
2022/04/29 01:32:36;;;;;;;22.73;15.65;;;3.30;95.80;;;;;;5030558;28;20026;-79
2022/04/29 01:35:03;;;;;;;21.83;16.65;;;3.30;96.00;;;;;;5031714;28;20088;-79
2022/04/29 01:37:30;;;;;;;22.00;17.17;;;3.30;96.10;;;;;;5032259;28;20100;-78
2022/04/29 01:39:56;;;;;;;19.52;15.70;;;3.30;96.10;;;;;;5031684;28;20415;-78
2022/04/29 01:42:22;;;;;;;24.02;17.67;;;3.30;96.20;;;;;;5031640;28;20021;-78
2022/04/29 01:44:48;;;;;;;21.52;16.85;;;3.30;96.20;;;;;;5031949;28;20035;-79
2022/04/29 01:47:13;;;;;;;26.25;17.75;;;3.20;96.30;;;;;;5031823;28;20022;-77
2022/04/29 01:49:40;;;;;;;22.90;16.88;;;3.20;96.30;;;;;;5027040;28;20030;-78
2022/04/29 01:52:06;;;;;;;21.35;14.45;;;3.20;96.30;;;;;;5011878;28;20022;-78
2022/04/29 01:54:31;;;;;;;18.92;14.30;;;3.20;96.40;;;;;;5011851;28;20064;-77
2022/04/29 01:56:57;;;;;;;17.92;13.93;;;3.20;96.40;;;;;;5012040;28;20437;-78
2022/04/29 01:59:23;;;;;;;21.92;15.20;;;3.20;96.40;;;;;;5011907;28;20030;-78
2022/04/29 02:01:49;;;;;;;17.92;13.65;;;3.20;96.50;;;;;;5012175;28;20073;-78
2022/04/29 02:04:15;;;;;;;20.13;14.68;;;3.20;96.50;;;;;;5027464;28;20075;-77
2022/04/29 02:06:41;;;;;;;21.48;13.77;;;3.20;96.50;;;;;;5030260;28;20403;-79
2022/04/29 02:09:08;;;;;;;20.50;14.25;;;3.20;96.50;;;;;;5031646;28;20025;-78
2022/04/29 02:11:34;;;;;;;21.63;14.30;;;3.20;96.50;;;;;;5031472;28;20097;-77
2022/04/29 02:14:01;;;;;;;15.18;13.57;;;3.20;96.50;;;;;;5031648;28;20041;-79
2022/04/29 02:16:27;;;;;;;20.23;13.52;;;3.20;96.50;;;;;;5031516;28;20022;-77
2022/04/29 02:18:53;;;;;;;17.33;12.52;;;3.20;96.40;;;;;;5031464;28;20056;-77
2022/04/29 02:21:19;;;;;;;19.17;13.32;;;3.30;96.50;;;;;;5032720;28;20018;-79
2022/04/29 02:23:45;;;;;;;18.77;13.07;;;3.30;96.40;;;;;;5035382;28;20131;-79
2022/04/29 02:26:10;;;;;;;18.90;13.15;;;3.30;96.40;;;;;;5035261;28;20147;-79
2022/04/29 02:28:36;;;;;;;18.25;13.70;;;3.30;96.40;;;;;;5035049;28;20104;-77
2022/04/29 02:31:03;;;;;;;15.95;11.73;;;3.40;96.30;;;;;;5035208;28;20025;-77
2022/04/29 02:33:28;;;;;;;14.95;12.43;;;3.50;96.30;;;;;;5035518;28;20025;-76
2022/04/29 02:35:55;;;;;;;16.30;11.80;;;3.50;96.20;;;;;;5035284;28;20501;-78
2022/04/29 02:38:21;;;;;;;13.68;11.32;;;3.60;96.00;;;;;;5035433;28;20432;-79
2022/04/29 02:40:50;;;;;;;18.70;13.75;;;3.70;95.90;;;;;;5035049;28;20387;-76
2022/04/29 02:43:19;;;;;;;17.30;10.27;;;3.80;95.80;;;;;;5034897;28;20108;-77
2022/04/29 02:45:46;;;;;;;17.92;12.32;;;3.80;95.60;;;;;;5034886;28;20029;-79
2022/04/29 02:48:14;;;;;;;15.57;11.93;;;3.90;95.40;;;;;;5033495;28;20025;-80
2022/04/29 02:50:40;;;;;;;17.35;12.23;;;4.00;95.20;;;;;;5034613;28;20017;-78
2022/04/29 02:53:06;;;;;;;13.30;10.80;;;3.90;95.00;;;;;;5034717;28;20045;-78
2022/04/29 02:55:32;;;;;;;15.02;10.45;;;4.00;94.90;;;;;;5034805;28;20045;-78
2022/04/29 02:57:58;;;;;;;15.65;11.52;;;4.10;94.90;;;;;;5034709;28;20072;-78
2022/04/29 03:00:23;;;;;;;16.00;10.25;;;4.10;94.80;;;;;;5034567;28;20060;-78
2022/04/29 03:02:49;;;;;;;12.65;9.55;;;4.20;94.70;;;;;;5033410;28;20045;-79
2022/04/29 03:05:15;;;;;;;15.40;9.27;;;4.30;94.50;;;;;;5034938;28;20021;-80
2022/04/29 03:07:41;;;;;;;14.35;9.98;;;4.40;94.20;;;;;;5033173;28;20075;-78
2022/04/29 03:10:07;;;;;;;10.88;8.15;;;4.40;94.00;;;;;;5034672;28;20080;-79
2022/04/29 03:12:32;;;;;;;12.90;8.70;;;4.40;93.70;;;;;;5034770;28;20087;-77
2022/04/29 03:15:15;;;;;;;18.30;9.27;;;4.50;93.50;;;;;;5034485;28;20120;-78
2022/04/29 03:20:26;;;;;;;11.93;8.30;;;4.60;93.10;;;;;;5034372;28;20032;-80
2022/04/29 03:22:52;;;;;;;14.85;8.57;;;4.70;92.90;;;;;;5032961;28;20467;-78
2022/04/29 03:25:18;;;;;;;12.25;9.25;;;4.70;92.80;;;;;;5034148;28;20021;-79
2022/04/29 03:27:44;;;;;;;11.32;7.93;;;4.80;92.60;;;;;;5034296;28;20028;-79
2022/04/29 03:30:11;;;;;;;11.07;8.02;;;4.80;92.40;;;;;;5034066;28;20032;-78
2022/04/29 03:32:37;;;;;;;12.18;9.35;;;4.80;92.30;;;;;;5032584;28;20025;-79
2022/04/29 03:35:02;;;;;;;9.48;7.22;;;4.90;92.10;;;;;;5033663;28;20068;-79
2022/04/29 03:37:28;;;;;;;9.05;6.82;;;4.90;92.00;;;;;;5033860;28;20079;-79
2022/04/29 03:39:54;;;;;;;9.15;6.82;;;5.00;91.80;;;;;;5033703;28;20021;-79
2022/04/29 03:42:21;;;;;;;9.52;7.85;;;5.10;91.70;;;;;;5033616;28;20029;-79
2022/04/29 03:44:47;;;;;;;9.38;7.28;;;5.20;91.50;;;;;;5033941;28;20021;-78
2022/04/29 03:47:12;;;;;;;9.00;5.70;;;5.30;91.20;;;;;;5033999;28;20148;-81
2022/04/29 03:49:38;;;;;;;8.02;6.30;;;5.40;90.90;;;;;;5033722;28;20167;-79
2022/04/29 03:52:05;;;;;;;7.40;5.93;;;5.50;90.40;;;;;;5029121;28;20017;-81
2022/04/29 03:54:31;;;;;;;6.68;5.30;;;5.50;90.20;;;;;;5012619;28;20033;-78
2022/04/29 03:56:57;;;;;;;7.78;5.97;;;5.50;90.00;;;;;;5013862;28;20503;-80
2022/04/29 03:59:23;;;;;;;9.30;5.18;;;5.50;89.40;;;;;;5013842;28;20427;-79
2022/04/29 04:01:49;;;;;;;9.48;5.40;;;5.50;88.40;;;;;;5013991;28;20029;-78
2022/04/29 04:04:15;;;;;;;7.03;5.85;;;5.40;88.60;;;;;;5029327;28;20027;-78
2022/04/29 04:06:50;;;;;;;8.02;5.95;;;5.40;88.20;;;;;;5033500;28;20077;-79
2022/04/29 04:09:17;;;;;;;9.27;6.13;;;5.50;88.20;;;;;;5033463;28;20391;-80
2022/04/29 04:11:43;;;;;;;8.43;6.25;;;5.50;88.20;;;;;;5033297;28;20029;-78
2022/04/29 04:14:09;;;;;;;7.47;5.30;;;5.60;87.70;;;;;;5033347;28;20475;-79
2022/04/29 04:16:36;;;;;;;6.22;5.25;;;5.60;87.70;;;;;;5032204;28;20068;-79
2022/04/29 04:19:03;;;;;;;7.72;5.75;;;5.60;86.80;;;;;;5033409;28;20021;-79
2022/04/29 04:21:29;;;;;;;7.00;5.68;;;5.60;86.70;;;;;;5033143;28;20387;-78
2022/04/29 04:23:55;;;;;;;10.68;6.38;;;5.70;86.30;;;;;;5032960;28;20026;-79
2022/04/29 04:26:22;;;;;;;6.50;3.90;;;5.70;85.90;;;;;;5032872;28;20017;-80
2022/04/29 04:28:48;;;;;;;6.28;5.10;;;5.70;84.60;;;;;;5032901;28;20106;-80
2022/04/29 04:31:14;;;;;;;9.52;6.30;;;5.70;84.30;;;;;;5032907;28;20028;-81
2022/04/29 04:33:40;;;;;;;9.23;6.03;;;5.80;84.40;;;;;;5032839;28;20037;-79
2022/04/29 04:36:06;;;;;;;9.50;6.05;;;6.00;85.00;;;;;;5032753;28;20026;-82
2022/04/29 04:38:32;;;;;;;7.13;4.88;;;6.20;84.80;;;;;;5032727;28;20488;-78
2022/04/29 04:40:58;;;;;;;6.85;5.50;;;6.30;83.60;;;;;;5032839;28;20049;-79
2022/04/29 04:43:25;;;;;;;6.70;4.63;;;6.60;84.10;;;;;;5032181;28;20081;-77
2022/04/29 04:45:52;;;;;;;5.97;4.72;;;7.30;81.10;;;;;;5032838;28;20022;-81
2022/04/29 04:48:18;;;;;;;6.88;4.70;;;8.10;76.60;;;;;;5031534;28;20032;-78
2022/04/29 04:50:44;;;;;;;6.93;4.85;;;9.00;74.50;;;;;;5032808;28;20025;-78
2022/04/29 04:53:10;;;;;;;8.02;4.97;;;10.00;70.90;;;;;;5031779;28;20060;-80
2022/04/29 04:55:39;;;;;;;4.78;3.70;;;10.80;66.90;;;;;;5032532;28;20069;-79
2022/04/29 04:58:05;;;;;;;12.32;3.80;;;11.60;62.20;;;;;;5032751;28;20030;-81
2022/04/29 05:00:32;;;;;;;6.10;3.45;;;12.10;58.20;;;;;;5032699;28;20017;-80
2022/04/29 05:02:58;;;;;;;4.85;3.53;;;12.70;56.00;;;;;;5032582;28;20026;-80
2022/04/29 05:05:24;;;;;;;5.28;3.55;;;13.40;52.80;;;;;;5032560;28;20033;-80
2022/04/29 05:07:49;;;;;;;6.70;3.65;;;14.10;50.90;;;;;;5030936;28;20029;-80
2022/04/29 05:10:15;;;;;;;6.13;4.32;;;14.50;49.10;;;;;;5031428;28;20029;-78
2022/04/29 05:12:46;;;;;;;6.80;4.00;;;15.00;47.90;;;;;;5030593;28;20025;-80
2022/04/29 05:15:14;;;;;;;3.72;2.97;;;15.70;46.10;;;;;;5031026;28;20378;-78
2022/04/29 05:17:40;;;;;;;;;;;15.90;44.10;;;;;;5032902;28;20018;-79
2022/04/29 05:20:10;;;;;;;10.27;3.75;;;15.80;46.00;;;;;;5032589;28;19996;-80
2022/04/29 05:22:36;;;;;;;6.88;3.85;;;15.90;43.00;;;;;;5036769;28;20036;-79
2022/04/29 05:25:03;;;;;;;5.55;3.72;;;16.60;40.70;;;;;;5033235;28;20025;-81
2022/04/29 05:27:29;;;;;;;7.33;3.73;;;17.00;40.40;;;;;;5032294;28;20022;-80
2022/04/29 05:29:54;;;;;;;4.13;3.72;;;17.50;39.10;;;;;;5032273;28;20032;-80
2022/04/29 05:32:21;;;;;;;5.90;3.83;;;17.80;38.20;;;;;;5030800;28;20119;-82
2022/04/29 05:34:47;;;;;;;6.90;3.78;;;18.30;36.40;;;;;;5032143;28;20033;-80
2022/04/29 05:37:13;;;;;;;5.53;2.80;;;18.80;34.90;;;;;;5032230;28;20063;-82
2022/04/29 05:42:25;;;;;;;10.45;3.30;;;19.50;33.70;;;;;;5032630;28;20057;-81
2022/04/29 05:44:51;;;;;;;7.17;2.97;;;20.10;31.90;;;;;;5033655;28;20026;-81
2022/04/29 05:47:17;;;;;;;8.75;3.33;;;20.90;30.40;;;;;;5033985;28;20277;-81
2022/04/29 05:49:43;;;;;;;6.35;2.90;;;21.70;29.30;;;;;;5032229;28;20096;-82
2022/04/29 05:52:09;;;;;;;4.03;3.30;;;21.90;29.50;;;;;;5032089;28;20017;-82
2022/04/29 05:54:36;;;;;;;6.10;3.23;;;22.10;28.60;;;;;;5031927;28;20037;-80
2022/04/29 05:57:03;;;;;;;7.20;3.00;;;22.10;28.00;;;;;;5034129;28;20109;-81
2022/04/29 05:59:32;;;;;;;4.18;3.65;;;21.80;28.60;;;;;;5034467;28;20025;-83
2022/04/29 06:01:59;;;;;;;7.30;3.50;;;22.60;28.10;;;;;;5033557;28;20025;-81
2022/04/29 06:04:25;;;;;;;4.60;2.80;;;22.80;27.50;;;;;;5035634;28;20553;-82
2022/04/29 06:06:51;;;;;;;5.03;3.28;;;23.10;27.60;;;;;;5035821;28;20025;-82
2022/04/29 06:09:16;;;;;;;4.32;3.28;;;23.20;27.30;;;;;;5035884;28;20030;-81
2022/04/29 06:11:42;;;;;;;4.75;3.40;;;23.80;26.60;;;;;;5034406;28;20124;-79
2022/04/29 06:14:08;;;;;;;5.65;3.05;;;23.90;26.40;;;;;;5035101;28;20445;-82
2022/04/29 06:16:34;;;;;;;6.97;2.92;;;23.80;26.20;;;;;;5032938;28;20045;-81
2022/04/29 06:19:00;;;;;;;7.00;3.55;;;23.80;26.00;;;;;;5033988;28;20029;-83
2022/04/29 06:21:26;;;;;;;9.20;3.17;;;23.20;25.90;;;;;;5019854;28;20058;-80
2022/04/29 06:23:52;;;;;;;9.43;3.08;;;23.60;26.40;;;;;;5023934;28;20442;-81
2022/04/29 06:26:17;;;;;;;8.32;3.10;;;24.50;25.80;;;;;;5034825;28;20021;-81
2022/04/29 06:28:43;;;;;;;8.82;3.58;;;24.90;25.40;;;;;;5032301;28;20044;-80
2022/04/29 06:31:09;;;;;;;6.35;2.42;;;25.40;25.00;;;;;;5035022;28;20033;-80
2022/04/29 06:33:38;;;;;;;6.65;2.60;;;26.40;23.80;;;;;;5034836;28;20022;-81
2022/04/29 06:36:05;;;;;;;5.13;2.35;;;26.80;24.00;;;;;;5033743;28;20444;-82
2022/04/29 06:38:31;;;;;;;6.60;2.65;;;26.50;23.70;;;;;;5034600;28;20101;-78
2022/04/29 06:40:58;;;;;;;4.40;2.30;;;26.40;23.70;;;;;;5034798;28;20128;-79
2022/04/29 06:43:23;;;;;;;3.47;2.20;;;26.70;23.50;;;;;;5035092;28;20104;-82
2022/04/29 06:45:49;;;;;;;4.72;1.98;;;27.10;22.90;;;;;;5034577;28;20227;-83
2022/04/29 06:48:15;;;;;;;3.65;1.90;;;27.20;22.30;;;;;;5033716;28;20467;-80
2022/04/29 06:50:42;;;;;;;4.10;1.77;;;26.60;22.20;;;;;;5029532;28;20018;-82
2022/04/29 06:53:08;;;;;;;4.88;2.08;;;25.60;22.30;;;;;;5013393;28;20062;-81
2022/04/29 06:55:38;;;;;;;4.10;2.10;;;25.00;22.70;;;;;;5033424;28;20116;-83
2022/04/29 06:58:04;;;;;;;5.90;2.45;;;24.20;23.10;;;;;;5046651;28;20026;-79
2022/04/29 07:00:30;;;;;;;5.25;2.35;;;24.00;23.30;;;;;;5014692;28;20471;-80
2022/04/29 07:03:02;;;;;;;4.03;2.10;;;24.60;23.10;;;;;;5023196;28;20021;-80
2022/04/29 07:05:31;;;;;;;4.28;1.90;;;25.00;23.00;;;;;;5066762;28;20025;-87
2022/04/29 07:07:57;;;;;;;3.05;2.10;;;25.40;23.00;;;;;;5024032;28;20029;-83
2022/04/29 07:10:23;;;;;;;3.00;2.10;;;24.50;22.90;;;;;;5023237;28;20033;-87
2022/04/29 07:12:49;;;;;;;3.10;2.17;;;24.50;22.90;;;;;;5026821;28;20038;-86
2022/04/29 07:15:16;;;;;;;3.38;2.15;;;24.50;23.00;;;;;;5035296;28;20034;-83
2022/04/29 07:17:43;;;;;;;2.97;1.90;;;24.50;22.80;;;;;;5031906;28;20063;-84
2022/04/29 07:20:10;;;;;;;4.15;2.03;;;25.20;22.80;;;;;;5031769;28;20255;-82
2022/04/29 07:22:38;;;;;;;3.05;2.10;;;26.40;22.80;;;;;;5033696;28;20386;-82
2022/04/29 07:25:09;;;;;;;8.43;2.75;;;26.30;22.60;;;;;;5034220;28;20394;-82
2022/04/29 07:27:35;;;;;;;5.20;2.50;;;26.20;22.60;;;;;;5033875;28;20026;-83
2022/04/29 07:30:02;;;;;;;2.40;1.75;;;26.80;22.60;;;;;;5034886;28;20104;-83
2022/04/29 07:32:28;;;;;;;5.63;2.22;;;27.10;22.30;;;;;;5038356;28;20025;-81
2022/04/29 07:43:09;;;;;;;2.97;1.85;;;25.50;22.30;;;;;;5034283;28;20041;-84
2022/04/29 07:45:37;;;;;;;5.05;2.15;;;23.30;23.10;;;;;;5044603;28;20076;-84
2022/04/29 07:48:05;;;;;;;6.22;2.70;;;22.20;24.10;;;;;;5033914;28;20030;-88
2022/04/29 07:50:31;;;;;;;5.05;2.75;;;22.00;24.80;;;;;;5035251;28;20021;-81
2022/04/29 07:52:58;;;;;;;3.40;2.40;;;22.10;24.60;;;;;;5033709;28;20471;-82
2022/04/29 07:55:24;;;;;;;4.25;1.92;;;23.30;24.60;;;;;;5033196;28;20188;-82
2022/04/29 07:57:50;;;;;;;3.00;1.90;;;25.10;23.80;;;;;;5033813;28;20045;-79
2022/04/29 08:00:17;;;;;;;4.40;2.88;;;25.10;23.10;;;;;;5033044;28;20422;-81
2022/04/29 08:02:43;;;;;;;3.20;2.37;;;24.40;23.00;;;;;;5033135;28;20021;-80
2022/04/29 08:05:09;;;;;;;6.55;2.60;;;23.00;23.70;;;;;;5031657;28;20030;-84
2022/04/29 08:07:34;;;;;;;4.03;2.45;;;21.40;24.60;;;;;;5014062;28;20369;-83
2022/04/29 08:10:00;;;;;;;5.15;2.45;;;20.20;25.40;;;;;;5014650;28;20076;-81
2022/04/29 08:12:27;;;;;;;6.45;2.08;;;19.20;25.80;;;;;;5024195;28;20033;-81
2022/04/29 08:14:56;;;;;;;5.95;2.40;;;18.10;26.50;;;;;;5032409;28;20040;-85
2022/04/29 08:17:23;;;;;;;8.35;2.72;;;17.30;27.50;;;;;;5024992;28;20083;-84
2022/04/29 08:19:52;;;;;;;4.67;2.83;;;16.50;28.70;;;;;;5035240;28;20085;-84
2022/04/29 08:22:18;;;;;;;5.15;2.70;;;15.70;29.40;;;;;;5036021;28;20057;-79
2022/04/29 08:24:45;;;;;;;7.03;2.30;;;15.30;30.00;;;;;;5031316;28;20025;-81
2022/04/29 08:27:11;;;;;;;11.45;2.70;;;14.90;30.60;;;;;;5012551;28;20383;-82
2022/04/29 08:29:40;;;;;;;12.20;3.47;;;14.60;31.10;;;;;;5014272;28;20032;-80
2022/04/29 08:32:06;;;;;;;6.65;2.47;;;14.60;31.60;;;;;;5013538;28;20069;-80
2022/04/29 08:34:33;;;;;;;8.18;2.90;;;14.30;31.40;;;;;;5013521;28;20068;-82
2022/04/29 08:37:03;;;;;;;4.55;2.45;;;13.90;32.30;;;;;;5018389;28;20018;-81
2022/04/29 08:39:30;;;;;;;5.97;2.90;;;14.00;32.60;;;;;;5033208;28;20041;-80
2022/04/29 08:42:00;;;;;;;7.20;2.75;;;14.30;32.50;;;;;;5032659;28;20124;-81
2022/04/29 08:44:30;;;;;;;4.50;2.47;;;16.20;31.60;;;;;;5032884;28;20155;-81
2022/04/29 08:46:57;;;;;;;3.15;1.85;;;19.50;29.40;;;;;;5033281;28;20025;-79
2022/04/29 08:49:26;;;;;;;3.78;2.10;;;22.00;27.10;;;;;;5034530;28;20083;-81
2022/04/29 08:51:52;;;;;;;4.93;2.13;;;24.00;25.80;;;;;;5034442;28;20029;-82
2022/04/29 08:59:58;;;;;;;3.33;1.60;;;25.70;24.00;;;;;;5035313;28;20124;-80
2022/04/29 09:02:26;;;;;;;6.53;1.92;;;26.90;23.40;;;;;;5032261;28;20438;-81
2022/04/29 09:04:53;;;;;;;3.28;2.10;;;27.50;22.80;;;;;;5032580;28;20390;-81
2022/04/29 09:07:19;;;;;;;;;;;27.10;22.70;;;;;;5031139;28;20034;-80
2022/04/29 09:10:02;;;;;;;3.03;1.95;;;26.20;23.90;;;;;;5021978;28;20307;-82
2022/04/29 09:12:29;;;;;;;9.02;2.17;;;24.70;23.40;;;;;;5028992;28;20025;-80
2022/04/29 09:15:17;;;;;;;3.45;1.60;;;23.10;24.60;;;;;;5032166;28;20025;-83
2022/04/29 09:17:45;;;;;;;3.65;1.77;;;22.90;24.80;;;;;;5032120;28;20025;-81
2022/04/29 09:20:16;;;;;;;3.92;2.20;;;22.60;24.40;;;;;;5032222;28;20025;-84
2022/04/29 09:22:47;;;;;;;4.10;2.22;;;22.90;24.40;;;;;;5032834;28;20017;-82
2022/04/29 09:25:13;;;;;;;2.72;1.70;;;22.20;24.40;;;;;;5031032;28;20025;-81
2022/04/29 09:27:58;;;;;;;9.20;3.25;;;20.60;25.10;;;;;;5031158;28;20487;-82
2022/04/29 09:30:56;;;;;;;3.05;2.00;;;19.20;26.70;;;;;;5011244;28;20076;-80
2022/04/29 09:33:24;;;;;;;3.30;2.20;;;17.50;27.30;;;;;;5014759;28;20079;-81
2022/04/29 09:35:50;;;;;;;4.90;3.75;;;16.00;28.80;;;;;;5012596;28;20103;-83
2022/04/29 09:41:01;;;;;;;6.95;2.40;;;15.30;30.00;;;;;;5030414;28;20156;-82
2022/04/29 09:43:34;;;;;;;3.88;2.30;;;15.20;30.10;;;;;;5032277;28;20025;-80
2022/04/29 09:46:18;;;;;;;3.63;2.67;;;15.00;30.10;;;;;;5032523;28;20032;-80
2022/04/29 09:48:57;;;;;;;4.75;2.40;;;14.80;30.20;;;;;;5032605;28;20041;-81
2022/04/29 09:51:51;;;;;;;5.65;2.83;;;14.40;30.60;;;;;;5032878;28;20057;-81
2022/04/29 09:54:17;;;;;;;4.28;2.67;;;15.00;30.90;;;;;;5031890;28;20033;-81
2022/04/29 09:57:03;;;;;;;6.60;2.70;;;17.20;29.60;;;;;;5031843;28;20429;-80
2022/04/29 09:59:40;;;;;;;3.90;2.20;;;20.00;28.90;;;;;;5030448;28;20140;-80
2022/04/29 10:02:07;;;;;;;4.95;2.47;;;21.10;26.40;;;;;;5031656;28;20026;-79
2022/04/29 10:04:35;;;;;;;5.22;2.58;;;20.70;25.90;;;;;;5030952;28;20029;-83
2022/04/29 10:07:07;;;;;;;5.53;2.42;;;19.80;26.60;;;;;;5023064;28;20332;-80
2022/04/29 10:09:34;;;;;;;4.75;2.97;;;20.60;26.70;;;;;;5062195;28;20029;-81
2022/04/29 10:12:09;;;;;;;5.97;2.53;;;20.80;26.30;;;;;;5031549;28;20100;-80
2022/04/29 10:14:37;;;;;;;6.25;2.88;;;20.20;26.50;;;;;;5031559;28;20021;-80
2022/04/29 10:22:58;;;;;;;3.95;2.50;;;19.20;26.80;;;;;;5024937;28;20037;-82
2022/04/29 10:25:26;;;;;;;4.10;3.20;;;18.00;27.40;;;;;;5051995;28;20558;-80
2022/04/29 10:27:53;;;;;;;6.20;2.45;;;17.10;28.10;;;;;;5042690;28;20068;-82
2022/04/29 10:30:27;;;;;;;7.38;2.92;;;16.30;28.50;;;;;;5031814;28;20024;-80
2022/04/29 10:33:10;;;;;;;6.20;2.67;;;15.80;29.00;;;;;;5030791;28;20033;-79
2022/04/29 10:35:53;;;;;;;4.93;2.35;;;15.50;29.40;;;;;;5018763;28;20480;-80
2022/04/29 10:38:27;;;;;;;6.50;3.00;;;14.80;29.70;;;;;;5011631;28;20077;-79
2022/04/29 10:41:25;;;;;;;3.85;2.17;;;14.40;30.30;;;;;;5028426;28;20053;-79
2022/04/29 10:43:51;;;;;;;8.40;3.67;;;14.30;30.70;;;;;;5034803;28;20095;-83
2022/04/29 10:46:35;;;;;;;5.45;2.55;;;14.30;30.90;;;;;;5035377;28;20483;-80
2022/04/29 10:49:30;;;;;;;3.72;2.60;;;14.20;30.80;;;;;;5036086;28;20026;-92
2022/04/29 10:52:00;;;;;;;5.32;3.33;;;14.00;30.80;;;;;;5035890;28;20048;-84
2022/04/29 10:54:35;;;;;;;3.72;2.67;;;13.80;31.30;;;;;;5050082;28;20394;-85
2022/04/29 10:57:04;;;;;;;8.77;3.72;;;13.60;32.00;;;;;;5036207;28;20021;-85
2022/04/29 10:59:49;;;;;;;4.47;2.25;;;13.50;32.00;;;;;;5038566;28;20033;-87
2022/04/29 11:02:32;;;;;;;7.95;2.95;;;13.50;31.40;;;;;;5037729;28;20093;-87
2022/04/29 11:05:00;;;;;;;8.82;3.10;;;13.60;31.80;;;;;;5039406;28;20041;-86
2022/04/29 11:07:36;;;;;;;7.57;2.53;;;13.70;32.30;;;;;;5036805;28;20390;-86
2022/04/29 11:10:04;;;;;;;5.03;2.60;;;14.00;31.70;;;;;;5037055;28;20033;-87
2022/04/29 11:12:35;;;;;;;7.85;2.42;;;14.10;31.40;;;;;;5035845;28;20037;-88
2022/04/29 11:15:14;;;;;;;4.03;2.28;;;14.10;31.50;;;;;;5036051;28;20497;-86
2022/04/29 11:17:41;;;;;;;7.45;3.22;;;13.90;31.40;;;;;;5037842;28;20030;-85
2022/04/29 11:20:26;;;;;;;4.30;2.10;;;13.90;32.10;;;;;;5034162;28;20029;-84
2022/04/29 11:25:55;;;;;;;4.38;2.38;;;14.10;31.50;;;;;;5034980;28;20116;-81
2022/04/29 11:28:22;;;;;;;3.33;2.20;;;13.90;31.70;;;;;;5034498;28;20378;-81
2022/04/29 11:30:49;;;;;;;2.83;1.90;;;13.80;31.20;;;;;;5032483;28;20037;-81
2022/04/29 11:33:22;;;;;;;4.45;2.45;;;13.70;31.60;;;;;;5032051;28;20034;-79
2022/04/29 11:35:52;;;;;;;6.65;3.17;;;13.30;31.90;;;;;;5049136;28;20061;-79
2022/04/29 11:38:18;;;;;;;5.43;3.10;;;13.20;32.60;;;;;;5033201;28;20029;-79
2022/04/29 11:40:44;;;;;;;8.90;3.17;;;13.30;32.60;;;;;;5034249;28;20060;-80
2022/04/29 11:43:11;;;;;;;5.72;2.40;;;13.40;32.40;;;;;;5033882;28;20483;-80
2022/04/29 11:45:38;;;;;;;4.72;2.13;;;13.60;32.00;;;;;;5032519;28;20360;-81
2022/04/29 11:48:06;;;;;;;3.95;2.05;;;13.50;31.60;;;;;;5033497;28;20501;-81
2022/04/29 11:50:36;;;;;;;5.22;2.33;;;13.30;31.60;;;;;;5031979;28;20483;-81
2022/04/29 11:53:08;;;;;;;16.33;2.97;;;13.00;32.30;;;;;;5031790;28;20083;-78
2022/04/29 11:55:35;;;;;;;5.90;2.67;;;13.20;32.80;;;;;;5064824;28;20045;-79
2022/04/29 11:58:01;;;;;;;4.65;2.55;;;13.30;32.50;;;;;;5032778;28;20136;-81
2022/04/29 12:00:29;;;;;;;4.22;2.33;;;13.40;32.50;;;;;;5033614;28;20014;-78
2022/04/29 12:02:57;;;;;;;5.50;2.20;;;13.60;32.20;;;;;;5033554;28;20021;-81
2022/04/29 12:05:23;;;;;;;;;;;13.60;32.00;;;;;;5032690;28;20390;-79
2022/04/29 12:07:49;;;;;;;4.32;2.05;;;13.80;32.00;;;;;;5033638;28;19905;-80
2022/04/29 12:10:18;;;;;;;2.40;1.85;;;13.70;31.90;;;;;;5033554;28;20014;-78
2022/04/29 12:12:47;;;;;;;8.05;2.97;;;13.60;32.40;;;;;;5033159;28;20012;-79
2022/04/29 12:15:17;;;;;;;9.45;2.83;;;13.70;32.50;;;;;;5033876;28;20065;-79
2022/04/29 12:17:42;;;;;;;6.97;2.25;;;13.80;32.40;;;;;;5033525;28;20022;-81
2022/04/29 12:20:19;;;;;;;4.70;2.50;;;13.60;32.00;;;;;;5028484;28;20032;-80
2022/04/29 12:22:50;;;;;;;5.07;2.40;;;13.40;32.60;;;;;;5023399;28;20045;-79
2022/04/29 12:25:18;;;;;;;4.82;2.33;;;13.30;32.90;;;;;;5027907;28;20506;-78
2022/04/29 12:27:44;;;;;;;5.15;2.45;;;13.20;32.80;;;;;;5024558;28;20479;-78
2022/04/29 12:36:10;;;;;;;12.68;2.88;;;13.40;32.90;;;;;;5030980;28;20044;-79
2022/04/29 12:38:37;;;;;;;4.18;2.30;;;13.30;33.00;;;;;;5032985;28;20009;-79
2022/04/29 12:41:27;;;;;;;4.28;2.42;;;13.40;32.70;;;;;;5032375;28;20191;-79
2022/04/29 12:44:05;;;;;;;2.78;2.10;;;13.40;32.80;;;;;;5031184;28;20499;-78
2022/04/29 12:46:31;;;;;;;8.00;2.15;;;13.20;32.90;;;;;;5032380;28;20028;-79
2022/04/29 12:48:57;;;;;;;5.57;1.88;;;13.00;33.40;;;;;;5024765;28;20018;-80
2022/04/29 12:51:33;;;;;;;8.38;2.70;;;12.90;33.40;;;;;;5025539;28;20462;-79
2022/04/29 12:54:07;;;;;;;9.05;3.50;;;12.90;33.70;;;;;;5032168;28;20022;-78
2022/04/29 12:56:34;;;;;;;8.25;4.05;;;13.00;33.80;;;;;;5032665;28;20025;-80
2022/04/29 12:59:03;;;;;;;11.45;5.93;;;13.10;33.30;;;;;;5031683;28;20053;-79
2022/04/29 13:01:40;;;;;;;4.10;2.67;;;13.10;33.90;;;;;;5032200;28;20099;-79
2022/04/29 13:04:06;;;;;;;4.43;3.07;;;13.20;33.70;;;;;;5031497;28;20029;-79
2022/04/29 13:06:33;;;;;;;10.82;3.40;;;13.40;33.70;;;;;;5030880;28;20029;-78
2022/04/29 13:09:01;;;;;;;7.60;2.42;;;13.50;33.50;;;;;;5029600;28;20036;-78
2022/04/29 13:11:27;;;;;;;5.32;2.97;;;13.40;33.20;;;;;;5031271;28;20084;-79
2022/04/29 13:13:54;;;;;;;3.45;2.58;;;13.30;33.40;;;;;;5029961;28;20029;-77
2022/04/29 13:16:21;;;;;;;6.50;2.30;;;13.30;34.10;;;;;;5031678;28;20033;-78
2022/04/29 13:18:47;;;;;;;4.80;2.65;;;13.30;33.40;;;;;;5031818;28;20024;-79
2022/04/29 13:21:15;;;;;;;4.70;2.10;;;13.00;33.40;;;;;;5030059;28;20037;-79
2022/04/29 13:23:43;;;;;;;6.07;2.55;;;12.70;34.10;;;;;;5029939;28;20017;-78
2022/04/29 13:26:10;;;;;;;6.25;2.33;;;12.70;34.40;;;;;;5012839;28;20034;-79
2022/04/29 13:28:37;;;;;;;2.90;1.90;;;12.60;34.20;;;;;;5031483;28;20108;-79